Terminal Aerodrome Forecast
Issued by NWS

Current Version | Previous Version | Text Only | Print | Product List | Glossary Off
Versions: 1 2 3 4 5 6 7 8 9 10 11 12 13 14 15 16 17 18 19 20 21 22 23 24 25

000
FTUS41 KPBZ 011000 AAB
TAFHLG
TAF AMD
KHLG 011001Z 0110/0206 18004KT P6SM OVC008
     FM011300 20004KT P6SM BKN012
     FM011500 23005KT P6SM BKN025
     FM011700 23008KT P6SM SCT040
     FM020500 24006KT P6SM VCSH BKN035=

USA.gov is the U.S. government's official web portal to all federal, state and local government web resources and services.